createdAt,value
2019-03-22T00:01:32.981Z,16.87
2019-03-22T00:06:36.573Z,12.63
2019-03-22T00:11:40.157Z,12.73
2019-03-22T00:16:43.759Z,15.30
2019-03-22T00:21:47.725Z,13.83
2019-03-22T00:26:51.380Z,15.10
2019-03-22T00:31:54.970Z,14.70
2019-03-22T00:36:58.557Z,15.83
2019-03-22T00:42:02.148Z,15.87
2019-03-22T00:47:05.810Z,15.97
2019-03-22T00:52:09.395Z,13.43
2019-03-22T00:57:12.986Z,13.37
2019-03-22T01:02:16.573Z,12.83
2019-03-22T01:07:20.229Z,14.47
2019-03-22T01:12:23.819Z,16.40
2019-03-22T01:17:27.869Z,15.30
2019-03-22T01:22:31.477Z,13.97
2019-03-22T01:27:40.410Z,14.23
2019-03-22T01:32:40.783Z,16.30
2019-03-22T01:37:44.377Z,16.40
2019-03-22T01:42:48.094Z,13.77
2019-03-22T01:47:51.923Z,12.43
2019-03-22T01:52:55.885Z,16.93
2019-03-22T01:57:59.782Z,13.47
2019-03-22T02:03:03.816Z,13.07
2019-03-22T02:08:07.506Z,16.43
2019-03-22T02:13:11.090Z,14.77
2019-03-22T02:18:14.827Z,15.80
2019-03-22T02:23:18.714Z,13.77
2019-03-22T02:28:22.301Z,17.90
2019-03-22T02:33:25.894Z,17.90
2019-03-22T02:38:29.476Z,16.37
2019-03-22T02:43:33.076Z,16.80
2019-03-22T02:48:37.025Z,14.60
2019-03-22T02:53:40.615Z,18.73
2019-03-22T02:58:44.647Z,15.37
2019-03-22T03:03:48.199Z,16.67
2019-03-22T03:08:52.141Z,15.57
2019-03-22T03:13:56.061Z,14.17
2019-03-22T03:18:59.646Z,17.50
2019-03-22T03:24:03.237Z,12.80
2019-03-22T03:29:06.889Z,15.20
2019-03-22T03:34:10.487Z,16.33
2019-03-22T03:39:14.078Z,17.67
2019-03-22T03:44:17.800Z,16.63
2019-03-22T03:49:21.452Z,19.40
2019-03-22T03:54:25.054Z,13.13
2019-03-22T03:59:28.640Z,14.07
2019-03-22T04:04:32.630Z,14.33
2019-03-22T04:09:36.219Z,18.70
2019-03-22T04:14:39.802Z,17.20
2019-03-22T04:19:43.766Z,16.73
2019-03-22T04:24:47.354Z,15.23
2019-03-22T04:29:50.943Z,14.70
2019-03-22T04:34:54.543Z,15.40
2019-03-22T04:39:58.141Z,15.27
2019-03-22T04:45:01.735Z,16.83
2019-03-22T04:50:06.739Z,18.67
2019-03-22T04:55:11.359Z,15.83
2019-03-22T05:00:16.184Z,17.43
2019-03-22T05:05:21.225Z,17.87
2019-03-22T05:10:26.274Z,18.23
2019-03-22T05:15:32.170Z,19.47
2019-03-22T05:20:37.128Z,17.63
2019-03-22T05:25:42.358Z,16.60
2019-03-22T05:31:18.816Z,23.87
2019-03-22T05:36:23.242Z,20.37
2019-03-22T05:41:27.196Z,18.60
2019-03-22T05:46:31.273Z,16.33
2019-03-22T05:51:35.262Z,17.10
2019-03-22T05:56:38.897Z,22.03
2019-03-22T06:01:45.140Z,18.40
2019-03-22T06:06:47.926Z,19.17
2019-03-22T06:11:51.589Z,21.27
2019-03-22T06:16:55.261Z,17.77
2019-03-22T06:21:58.851Z,17.30
2019-03-22T06:27:02.438Z,29.30
2019-03-22T06:32:06.130Z,24.43
2019-03-22T06:37:09.741Z,23.17
2019-03-22T06:42:13.335Z,27.20
2019-03-22T06:47:16.931Z,24.20
2019-03-22T06:52:20.525Z,21.10
2019-03-22T06:57:24.119Z,20.90
2019-03-22T07:02:27.709Z,20.70
2019-03-22T07:07:31.378Z,22.37
2019-03-22T07:12:34.979Z,29.20
2019-03-22T07:17:38.570Z,21.67
2019-03-22T07:22:42.172Z,19.67
2019-03-22T07:27:45.766Z,20.20
2019-03-22T07:32:49.387Z,20.00
2019-03-22T07:37:52.969Z,18.00
2019-03-22T07:42:56.561Z,22.13
2019-03-22T07:48:00.250Z,25.30
2019-03-22T07:53:04.315Z,22.73
2019-03-22T07:58:07.903Z,23.40
2019-03-22T08:03:11.499Z,24.77
2019-03-22T08:08:15.090Z,20.17
2019-03-22T08:13:19.038Z,23.70
2019-03-22T08:18:22.655Z,27.50
2019-03-22T08:23:26.264Z,20.60
2019-03-22T08:28:29.845Z,20.77
2019-03-22T08:33:33.432Z,20.40
2019-03-22T08:38:37.347Z,19.50
2019-03-22T08:43:40.948Z,20.63
2019-03-22T08:48:44.878Z,17.53
2019-03-22T08:53:55.260Z,21.93
2019-03-22T08:58:53.823Z,18.00
2019-03-22T09:03:57.412Z,22.57
2019-03-22T09:09:01.385Z,20.40
2019-03-22T09:14:05.058Z,18.27
2019-03-22T09:19:08.681Z,19.60
2019-03-22T09:24:12.705Z,29.43
2019-03-22T09:29:16.725Z,22.17
2019-03-22T09:34:32.878Z,19.23
2019-03-22T09:39:25.586Z,22.00
2019-03-22T09:44:42.401Z,20.50
2019-03-22T09:49:34.504Z,20.73
2019-03-22T09:54:38.427Z,25.80
2019-03-22T09:59:42.066Z,23.70
2019-03-22T10:04:45.675Z,21.23
2019-03-22T10:09:49.342Z,23.13
2019-03-22T10:14:54.323Z,21.20
2019-03-22T10:19:57.887Z,20.53
2019-03-22T10:25:01.867Z,22.53
2019-03-22T10:30:10.580Z,21.17
2019-03-22T10:35:25.523Z,25.93
2019-03-22T10:40:19.867Z,20.37
2019-03-22T10:45:23.466Z,20.47
2019-03-22T10:50:27.091Z,21.93
2019-03-22T10:55:31.016Z,23.70
2019-03-22T11:00:34.919Z,22.37
2019-03-22T11:05:38.541Z,23.83
2019-03-22T11:10:42.145Z,22.20
2019-03-22T11:15:48.728Z,24.20
2019-03-22T11:20:51.231Z,22.23
2019-03-22T11:26:03.816Z,23.47
2019-03-22T11:31:04.684Z,25.83
2019-03-22T11:36:06.206Z,21.90
2019-03-22T11:41:10.438Z,24.53
2019-03-22T11:46:14.389Z,21.03
2019-03-22T11:51:18.956Z,24.87
2019-03-22T11:56:22.851Z,24.27
2019-03-22T12:01:45.786Z,22.00
2019-03-22T12:06:49.537Z,23.37
2019-03-22T12:11:53.150Z,23.90
2019-03-22T12:16:56.867Z,24.23
2019-03-22T12:22:00.436Z,25.33
2019-03-22T12:27:04.098Z,22.27
2019-03-22T12:32:08.571Z,23.03
2019-03-22T12:37:12.162Z,24.57
2019-03-22T12:42:15.902Z,24.20
2019-03-22T12:47:19.568Z,23.93
2019-03-22T12:52:23.162Z,23.93
2019-03-22T12:57:26.761Z,24.33
2019-03-22T13:02:30.688Z,26.40
2019-03-22T13:07:34.428Z,29.00
2019-03-22T13:12:38.164Z,28.37
2019-03-22T13:17:41.846Z,26.70
2019-03-22T13:22:45.947Z,24.37
2019-03-22T13:27:49.717Z,25.27
2019-03-22T13:32:53.329Z,30.03
2019-03-22T13:37:57.295Z,28.33
2019-03-22T13:43:00.957Z,26.07
2019-03-22T13:48:05.132Z,23.83
2019-03-22T13:53:08.794Z,25.27
2019-03-22T13:58:13.226Z,26.90
2019-03-22T14:03:16.795Z,30.60
2019-03-22T14:08:20.771Z,23.57
2019-03-22T14:13:24.675Z,30.40
2019-03-22T14:18:28.279Z,28.23
2019-03-22T14:23:31.945Z,30.80
2019-03-22T14:28:35.616Z,29.93
2019-03-22T14:33:39.573Z,30.30
2019-03-22T14:38:44.340Z,29.50
2019-03-22T14:43:48.101Z,27.63
2019-03-22T14:48:51.752Z,29.63
2019-03-22T14:53:55.471Z,30.77
2019-03-22T14:58:59.069Z,29.20
2019-03-22T15:04:02.742Z,29.63
2019-03-22T15:09:07.587Z,28.70
2019-03-22T15:14:28.131Z,31.27
2019-03-22T15:19:36.830Z,30.30
2019-03-22T15:24:48.258Z,34.23
2019-03-22T15:30:10.915Z,33.70
2019-03-22T15:35:16.361Z,35.70
2019-03-22T15:40:19.918Z,32.17
2019-03-22T15:45:30.302Z,33.73
2019-03-22T15:50:34.518Z,34.13
2019-03-22T15:55:38.182Z,32.17
2019-03-22T16:00:42.250Z,34.30
2019-03-22T16:05:45.919Z,36.83
2019-03-22T16:10:49.523Z,36.07
2019-03-22T16:15:53.544Z,38.53
2019-03-22T16:21:00.069Z,35.10
2019-03-22T16:26:02.581Z,34.53
2019-03-22T16:31:06.268Z,36.73
2019-03-22T16:36:09.996Z,37.83
2019-03-22T16:41:13.694Z,34.63
2019-03-22T16:46:17.808Z,37.70
2019-03-22T16:51:21.838Z,34.60
2019-03-22T16:56:27.198Z,33.73
2019-03-22T17:01:34.082Z,38.37
2019-03-22T17:06:37.858Z,33.80
2019-03-22T17:11:41.464Z,33.50
2019-03-22T17:16:45.135Z,34.53
2019-03-22T17:21:48.821Z,35.90
2019-03-22T17:26:52.858Z,36.93
2019-03-22T17:31:56.597Z,34.43
2019-03-22T17:37:00.623Z,37.07
2019-03-22T17:42:04.818Z,35.90
2019-03-22T17:47:08.490Z,31.23
2019-03-22T17:52:12.193Z,48.90
2019-03-22T17:57:18.926Z,69.10
2019-03-22T18:02:21.631Z,44.47
2019-03-22T18:07:25.275Z,35.37
2019-03-22T18:12:28.865Z,35.87
2019-03-22T18:17:32.478Z,36.27
2019-03-22T18:22:36.198Z,38.23
2019-03-22T18:27:39.926Z,34.27
2019-03-22T18:32:43.762Z,32.63
2019-03-22T18:37:47.464Z,38.53
2019-03-22T18:42:51.033Z,59.20
2019-03-22T18:47:54.622Z,55.67
2019-03-22T18:52:58.286Z,47.67
2019-03-22T18:58:01.954Z,35.93
2019-03-22T19:03:05.550Z,34.20
2019-03-22T19:08:09.170Z,31.00
2019-03-22T19:13:13.125Z,38.03
2019-03-22T19:18:17.129Z,37.10
2019-03-22T19:23:21.183Z,31.10
2019-03-22T19:28:25.111Z,28.60
2019-03-22T19:33:28.849Z,37.83
2019-03-22T19:38:32.850Z,32.20
2019-03-22T19:43:36.778Z,30.93
2019-03-22T19:48:40.370Z,31.53
2019-03-22T19:53:43.982Z,34.87
2019-03-22T19:58:47.582Z,30.90
2019-03-22T20:03:51.602Z,29.67
2019-03-22T20:08:55.262Z,34.37
2019-03-22T20:13:58.877Z,31.97
2019-03-22T20:19:02.470Z,31.27
2019-03-22T20:24:06.066Z,35.73
2019-03-22T20:29:09.738Z,35.70
2019-03-22T20:34:14.690Z,29.27
2019-03-22T20:39:18.592Z,36.03
2019-03-22T20:44:22.196Z,35.93
2019-03-22T20:49:25.789Z,37.37
2019-03-22T20:54:29.466Z,36.23
2019-03-22T20:59:33.066Z,36.13
2019-03-22T21:04:36.668Z,30.47
2019-03-22T21:09:40.262Z,29.57
2019-03-22T21:14:43.882Z,29.50
2019-03-22T21:19:47.805Z,35.83
2019-03-22T21:24:51.396Z,26.43
2019-03-22T21:29:54.992Z,28.73
2019-03-22T21:34:58.584Z,28.80
2019-03-22T21:40:02.254Z,29.93
2019-03-22T21:45:07.037Z,32.93
2019-03-22T21:50:11.631Z,37.83
2019-03-22T21:55:15.251Z,34.50
2019-03-22T22:00:18.911Z,30.03
2019-03-22T22:05:22.498Z,33.47
2019-03-22T22:10:26.170Z,31.37
2019-03-22T22:15:29.769Z,31.57
2019-03-22T22:20:33.349Z,29.03
2019-03-22T22:25:37.246Z,29.37
2019-03-22T22:30:40.905Z,29.83
2019-03-22T22:35:46.855Z,33.38
2019-03-22T22:40:50.014Z,32.90
2019-03-22T22:45:53.599Z,29.03
2019-03-22T22:50:57.614Z,29.30
2019-03-22T22:56:01.203Z,33.20
2019-03-22T23:01:05.050Z,25.93
2019-03-22T23:06:09.696Z,28.50
2019-03-22T23:11:14.046Z,28.37
2019-03-22T23:16:17.651Z,34.77
2019-03-22T23:21:21.761Z,28.10
2019-03-22T23:26:25.347Z,27.60
2019-03-22T23:31:28.945Z,28.17
2019-03-22T23:36:32.621Z,28.00
2019-03-22T23:41:36.278Z,25.57
2019-03-22T23:46:39.934Z,27.43
2019-03-22T23:51:43.537Z,27.87
2019-03-22T23:56:47.145Z,32.87
